Time;durP1;ratioP1;P1;durP2;ratioP2;P2;SDS_P1;SDS_P2;PMS_P1;PMS_P2;Temp;Humidity;BMP_temperature;BMP_pressure;BME280_temperature;BME280_humidity;BME280_pressure;Samples;Min_cycle;Max_cycle;Signal;HPM_P1;HPM_P2
2022/06/26 00:00:13;;;;;;;11.70;9.10;;;;;;;17.85;100.00;100456.91;688725;28;1095;-46
2022/06/26 00:00:33;;;;;;;11.80;8.70;;;;;;;17.81;100.00;100465.03;688779;28;1278;-46
2022/06/26 00:00:53;;;;;;;10.13;8.73;;;;;;;17.75;100.00;100455.53;687690;28;1243;-48
2022/06/26 00:01:14;;;;;;;10.03;8.93;;;;;;;17.71;100.00;100464.50;688043;28;959;-47
2022/06/26 00:01:36;;;;;;;9.95;8.95;;;;;;;17.75;100.00;100468.75;690272;28;4362;-47
2022/06/26 00:01:57;;;;;;;9.75;8.52;;;;;;;17.65;100.00;100462.97;691150;28;1554;-46
2022/06/26 00:02:17;;;;;;;9.70;8.17;;;;;;;17.62;100.00;100460.41;690681;28;987;-48
2022/06/26 00:02:38;;;;;;;9.30;7.93;;;;;;;17.59;100.00;100460.53;690865;28;1158;-46
2022/06/26 00:02:58;;;;;;;10.07;8.43;;;;;;;17.57;100.00;100456.22;691247;28;793;-49
2022/06/26 00:03:18;;;;;;;12.67;8.30;;;;;;;17.58;100.00;100458.78;689176;28;1063;-46
2022/06/26 00:03:39;;;;;;;11.63;8.40;;;;;;;17.54;100.00;100454.53;691221;28;859;-46
2022/06/26 00:03:59;;;;;;;9.88;8.65;;;;;;;17.56;100.00;100457.16;690081;28;1106;-47
2022/06/26 00:04:20;;;;;;;9.13;7.97;;;;;;;17.55;100.00;100456.28;690799;28;1969;-46
2022/06/26 00:04:40;;;;;;;11.40;8.25;;;;;;;17.56;100.00;100452.72;690213;28;4667;-45
2022/06/26 00:05:01;;;;;;;12.03;8.97;;;;;;;17.53;100.00;100460.78;691120;28;1773;-46
2022/06/26 00:05:22;;;;;;;12.15;8.88;;;;;;;17.51;100.00;100452.91;690571;28;1085;-47
2022/06/26 00:05:42;;;;;;;10.88;8.20;;;;;;;17.49;100.00;100451.22;690359;28;1162;-46
2022/06/26 00:06:03;;;;;;;10.30;8.13;;;;;;;17.57;100.00;100449.16;690271;28;1226;-47
2022/06/26 00:06:23;;;;;;;11.45;8.73;;;;;;;17.65;100.00;100444.44;690618;28;1463;-46
2022/06/26 00:06:43;;;;;;;9.80;8.07;;;;;;;17.59;100.00;100444.66;690897;28;1173;-46
2022/06/26 00:07:04;;;;;;;9.65;8.10;;;;;;;17.56;100.00;100436.88;690896;28;1209;-46
2022/06/26 00:07:24;;;;;;;9.63;7.67;;;;;;;17.55;100.00;100437.78;687985;28;1200;-46
2022/06/26 00:07:46;;;;;;;9.18;7.70;;;;;;;17.50;100.00;100429.16;690228;28;4441;-46
2022/06/26 00:08:07;;;;;;;9.15;7.90;;;;;;;17.52;100.00;100435.25;690334;28;1083;-46
2022/06/26 00:08:28;;;;;;;9.07;7.85;;;;;;;17.62;100.00;100427.84;691058;28;1285;-46
2022/06/26 00:08:49;;;;;;;11.20;7.72;;;;;;;17.60;100.00;100425.25;691254;28;1416;-45
2022/06/26 00:09:09;;;;;;;9.10;7.80;;;;;;;17.56;100.00;100428.94;690549;28;1050;-46
2022/06/26 00:09:30;;;;;;;10.85;8.20;;;;;;;17.53;100.00;100424.63;690451;28;1066;-46
2022/06/26 00:09:51;;;;;;;9.82;7.80;;;;;;;17.57;100.00;100422.72;691024;28;1098;-45
2022/06/26 00:10:11;;;;;;;9.03;7.47;;;;;;;17.56;100.00;100421.00;690593;28;974;-45
2022/06/26 00:10:31;;;;;;;9.53;7.67;;;;;;;17.55;100.00;100424.56;693258;28;4332;-46
2022/06/26 00:10:52;;;;;;;8.88;7.68;;;;;;;17.48;100.00;100418.63;693274;28;1166;-45
2022/06/26 00:11:13;;;;;;;9.65;7.68;;;;;;;17.44;100.00;100419.66;692662;28;1000;-45
2022/06/26 00:11:33;;;;;;;10.20;7.73;;;;;;;17.42;100.00;100418.00;694329;28;1102;-46
2022/06/26 00:11:54;;;;;;;9.00;7.90;;;;;;;17.39;100.00;100415.47;693273;28;1304;-47
2022/06/26 00:12:17;;;;;;;9.45;8.35;;;;;;;17.35;100.00;100417.38;693442;28;965;-45
2022/06/26 00:12:37;;;;;;;9.88;8.48;;;;;;;17.31;100.00;100413.97;693208;28;1406;-46
2022/06/26 00:12:57;;;;;;;9.50;8.50;;;;;;;17.32;100.00;100414.84;693008;28;1097;-46
2022/06/26 00:13:18;;;;;;;10.20;8.30;;;;;;;17.31;100.00;100416.63;694396;28;1134;-47
2022/06/26 00:13:39;;;;;;;10.07;8.07;;;;;;;17.31;100.00;100410.50;695308;28;4363;-47
2022/06/26 00:13:59;;;;;;;11.73;8.07;;;;;;;17.26;100.00;100410.63;695550;28;1090;-46
2022/06/26 00:14:20;;;;;;;12.47;8.70;;;;;;;17.26;100.00;100402.72;694438;28;1017;-45
2022/06/26 00:14:40;;;;;;;10.82;8.68;;;;;;;17.26;100.00;100404.50;694249;28;1209;-46
2022/06/26 00:15:01;;;;;;;9.53;8.37;;;;;;;17.26;100.00;100410.63;694921;28;1341;-45
2022/06/26 00:15:22;;;;;;;9.68;8.45;;;;;;;17.27;100.00;100406.25;694113;28;1409;-46
2022/06/26 00:15:43;;;;;;;11.70;9.23;;;;;;;17.24;100.00;100409.84;695068;28;1133;-47
2022/06/26 00:16:03;;;;;;;10.43;9.15;;;;;;;17.23;100.00;100407.28;691338;28;1230;-46
2022/06/26 00:16:24;;;;;;;11.20;8.57;;;;;;;17.23;100.00;100408.13;691502;28;983;-46
2022/06/26 00:16:44;;;;;;;10.80;8.07;;;;;;;17.24;100.00;100409.84;691664;28;4482;-45
2022/06/26 00:17:05;;;;;;;9.63;7.97;;;;;;;17.23;100.00;100405.47;691440;28;1437;-47
2022/06/26 00:17:25;;;;;;;9.98;7.95;;;;;;;17.22;100.00;100411.66;691917;28;1137;-46
2022/06/26 00:17:46;;;;;;;10.10;7.93;;;;;;;17.23;100.00;100409.91;692134;28;1086;-46
2022/06/26 00:18:06;;;;;;;9.77;8.10;;;;;;;17.23;100.00;100409.91;693006;28;1214;-45
2022/06/26 00:18:27;;;;;;;10.23;8.02;;;;;;;17.21;100.00;100412.63;693953;28;1261;-46
2022/06/26 00:18:48;;;;;;;11.07;8.80;;;;;;;17.22;100.00;100413.47;693953;28;983;-46
2022/06/26 00:19:08;;;;;;;10.07;8.55;;;;;;;17.22;100.00;100406.38;692956;28;1315;-45
2022/06/26 00:19:29;;;;;;;10.80;8.60;;;;;;;17.23;100.00;100416.03;693375;28;4311;-46
2022/06/26 00:19:50;;;;;;;10.53;8.70;;;;;;;17.21;100.00;100409.09;693272;28;3801;-46
2022/06/26 00:20:10;;;;;;;10.82;8.50;;;;;;;17.19;100.00;100404.72;691370;28;905;-47
2022/06/26 00:20:31;;;;;;;10.02;8.23;;;;;;;17.17;100.00;100406.56;691515;28;998;-47
2022/06/26 00:20:52;;;;;;;10.00;8.77;;;;;;;17.14;100.00;100400.53;691332;28;1103;-46
2022/06/26 00:21:12;;;;;;;10.53;8.77;;;;;;;17.12;100.00;100407.66;691598;28;972;-48
2022/06/26 00:21:32;;;;;;;10.23;8.88;;;;;;;17.12;100.00;100405.00;691397;28;1110;-46
2022/06/26 00:21:53;;;;;;;10.73;9.40;;;;;;;17.18;100.00;100403.00;691328;28;1039;-46
2022/06/26 00:22:15;;;;;;;10.30;8.95;;;;;;;17.17;100.00;100400.44;690598;28;1264;-47
2022/06/26 00:22:35;;;;;;;12.20;8.98;;;;;;;17.17;100.00;100403.06;690190;28;4367;-47
2022/06/26 00:22:56;;;;;;;12.18;9.30;;;;;;;17.12;100.00;100399.72;691117;28;1091;-45
2022/06/26 00:23:16;;;;;;;11.70;9.37;;;;;;;17.08;100.00;100398.13;691175;28;1006;-46
2022/06/26 00:23:36;;;;;;;11.45;9.10;;;;;;;17.09;100.00;100398.06;691081;28;1056;-45
2022/06/26 00:23:57;;;;;;;11.47;8.93;;;;;;;17.11;100.00;100393.59;691441;28;1099;-45
2022/06/26 00:24:18;;;;;;;11.43;9.00;;;;;;;17.12;100.00;100402.38;691059;28;1956;-48
2022/06/26 00:24:38;;;;;;;11.40;9.40;;;;;;;17.11;100.00;100405.91;694344;28;1099;-47
2022/06/26 00:24:59;;;;;;;11.20;9.07;;;;;;;17.09;100.00;100397.22;694478;28;1239;-46
2022/06/26 00:25:19;;;;;;;11.02;9.02;;;;;;;17.09;100.00;100391.94;692330;28;1244;-46
2022/06/26 00:25:40;;;;;;;11.73;9.30;;;;;;;17.09;100.00;100402.50;691067;28;4487;-46
2022/06/26 00:26:04;;;;;;;11.35;9.73;;;;;;;17.08;100.00;100398.97;691251;28;822;-48
2022/06/26 00:26:24;;;;;;;9.88;8.88;;;;;;;17.09;100.00;100398.06;690253;28;1139;-45
2022/06/26 00:26:45;;;;;;;10.33;9.10;;;;;;;17.09;100.00;100392.78;691018;28;1124;-47
2022/06/26 00:27:06;;;;;;;11.73;9.55;;;;;;;17.09;100.00;100405.13;690945;28;1185;-45
2022/06/26 00:27:27;;;;;;;11.48;9.07;;;;;;;17.09;100.00;100392.78;691348;28;1258;-45
2022/06/26 00:27:47;;;;;;;11.40;9.10;;;;;;;17.11;100.00;100392.72;688164;28;1867;-44
2022/06/26 00:28:08;;;;;;;11.67;9.03;;;;;;;17.11;100.00;100396.25;689134;28;1167;-45
2022/06/26 00:28:28;;;;;;;11.30;8.73;;;;;;;17.11;100.00;100400.63;688170;28;4327;-48
2022/06/26 00:28:49;;;;;;;10.77;8.70;;;;;;;17.11;100.00;100390.06;687945;28;1177;-46
2022/06/26 00:29:09;;;;;;;10.47;8.37;;;;;;;17.13;100.00;100404.94;688515;28;1166;-48
2022/06/26 00:29:30;;;;;;;10.40;8.43;;;;;;;17.14;100.00;100396.13;689142;28;1076;-45
2022/06/26 00:29:50;;;;;;;10.15;8.63;;;;;;;17.13;100.00;100396.19;691074;28;1265;-46
2022/06/26 00:30:11;;;;;;;11.40;9.10;;;;;;;17.13;100.00;100398.81;690909;28;1170;-46
2022/06/26 00:30:32;;;;;;;11.80;9.82;;;;;;;17.13;100.00;100398.81;687717;28;1136;-46
2022/06/26 00:30:52;;;;;;;11.27;9.17;;;;;;;17.11;100.00;100396.25;687158;28;1492;-45
2022/06/26 00:31:13;;;;;;;10.95;8.43;;;;;;;17.10;100.00;100399.78;688896;28;1302;-45
2022/06/26 00:31:33;;;;;;;10.17;8.40;;;;;;;17.12;100.00;100402.38;685753;28;4564;-46
2022/06/26 00:31:53;;;;;;;10.50;8.50;;;;;;;17.12;100.00;100394.44;688414;28;1421;-45
2022/06/26 00:32:14;;;;;;;10.37;8.53;;;;;;;17.13;100.00;100404.94;688160;28;1353;-45
2022/06/26 00:32:34;;;;;;;10.70;8.90;;;;;;;17.12;100.00;100402.38;691092;28;1415;-45
2022/06/26 00:32:55;;;;;;;11.70;8.60;;;;;;;17.12;100.00;100407.66;691407;28;1331;-47
2022/06/26 00:33:15;;;;;;;9.97;8.70;;;;;;;17.10;100.00;100402.44;688267;28;1574;-45
2022/06/26 00:33:35;;;;;;;10.38;9.05;;;;;;;17.10;100.00;100410.34;685841;28;1602;-46
2022/06/26 00:33:56;;;;;;;11.30;9.10;;;;;;;17.09;100.00;100402.50;685709;28;1276;-45
2022/06/26 00:34:16;;;;;;;10.88;8.65;;;;;;;17.07;100.00;100407.84;685382;28;1116;-46
2022/06/26 00:34:37;;;;;;;11.50;8.97;;;;;;;17.07;100.00;100409.59;684793;28;4671;-45
2022/06/26 00:34:57;;;;;;;11.95;9.13;;;;;;;17.09;100.00;100407.78;687437;28;1123;-46
2022/06/26 00:35:17;;;;;;;11.27;8.50;;;;;;;17.12;100.00;100407.66;689785;28;1188;-46
2022/06/26 00:35:38;;;;;;;10.60;8.30;;;;;;;17.14;100.00;100411.09;694561;28;1104;-45
2022/06/26 00:35:58;;;;;;;12.82;8.77;;;;;;;17.14;100.00;100416.38;694225;28;1217;-46
2022/06/26 00:36:19;;;;;;;12.37;8.70;;;;;;;17.14;100.00;100416.38;693732;28;1034;-46
2022/06/26 00:36:39;;;;;;;10.07;8.70;;;;;;;17.15;100.00;100418.09;693536;28;1142;-46
2022/06/26 00:36:59;;;;;;;10.33;8.80;;;;;;;17.14;100.00;100417.25;694158;28;1141;-45
2022/06/26 00:37:20;;;;;;;10.98;8.57;;;;;;;17.14;100.00;100419.00;690831;28;1117;-46
2022/06/26 00:37:40;;;;;;;11.27;8.60;;;;;;;17.14;100.00;100416.38;691387;28;4280;-47
2022/06/26 00:38:03;;;;;;;11.80;8.40;;;;;;;17.14;100.00;100421.66;694356;28;1406;-46
2022/06/26 00:38:23;;;;;;;9.95;8.20;;;;;;;17.13;100.00;100419.94;693871;28;971;-46
2022/06/26 00:38:44;;;;;;;9.60;8.52;;;;;;;17.13;100.00;100415.50;691420;28;1224;-46
2022/06/26 00:39:04;;;;;;;9.40;8.27;;;;;;;17.13;100.00;100426.09;687794;28;1175;-46
2022/06/26 00:39:25;;;;;;;10.32;8.23;;;;;;;17.14;100.00;100416.38;688258;28;1076;-45
2022/06/26 00:39:45;;;;;;;9.63;8.30;;;;;;;17.15;100.00;100418.09;688907;28;1143;-46
2022/06/26 00:40:07;;;;;;;10.98;8.65;;;;;;;17.12;100.00;100424.34;688397;28;1238;-47
2022/06/26 00:40:27;;;;;;;10.60;8.90;;;;;;;17.10;100.00;100418.28;686540;28;4835;-44
2022/06/26 00:40:48;;;;;;;10.35;9.05;;;;;;;17.09;100.00;100420.97;691533;28;1349;-45
2022/06/26 00:41:08;;;;;;;10.80;9.47;;;;;;;17.08;100.00;100416.59;690945;28;1349;-46
2022/06/26 00:41:28;;;;;;;10.82;8.88;;;;;;;17.07;100.00;100418.41;691652;28;997;-46
2022/06/26 00:41:51;;;;;;;10.40;8.67;;;;;;;17.09;100.00;100413.91;691594;28;1224;-46
2022/06/26 00:42:12;;;;;;;10.73;8.60;;;;;;;17.09;100.00;100415.69;693938;28;1246;-45
2022/06/26 00:42:33;;;;;;;10.98;9.07;;;;;;;17.03;100.00;100416.78;691522;28;1286;-45
2022/06/26 00:42:53;;;;;;;11.30;9.32;;;;;;;17.02;100.00;100415.03;690285;28;1033;-45
2022/06/26 00:43:14;;;;;;;11.33;9.20;;;;;;;17.04;100.00;100407.91;690297;28;1047;-45
2022/06/26 00:43:34;;;;;;;10.63;8.73;;;;;;;17.06;100.00;100413.13;689931;28;4433;-44
2022/06/26 00:43:54;;;;;;;10.90;8.60;;;;;;;17.07;100.00;100404.31;690470;28;1186;-46
2022/06/26 00:44:18;;;;;;;10.33;8.73;;;;;;;17.07;100.00;100413.13;687289;28;1056;-48
2022/06/26 00:44:39;;;;;;;10.90;8.30;;;;;;;17.09;100.00;100410.41;690456;28;1262;-46
2022/06/26 00:45:00;;;;;;;10.77;8.53;;;;;;;17.07;100.00;100404.31;691489;28;1204;-45
2022/06/26 00:45:21;;;;;;;11.18;8.82;;;;;;;17.05;100.00;100407.00;691716;28;1257;-45
2022/06/26 00:45:41;;;;;;;11.63;8.90;;;;;;;17.05;100.00;100406.16;689387;28;1493;-46
2022/06/26 00:46:04;;;;;;;12.07;9.27;;;;;;;17.04;100.00;100407.06;688946;28;1048;-46
2022/06/26 00:46:25;;;;;;;12.57;9.15;;;;;;;17.00;100.00;100404.53;690990;28;1578;-46
2022/06/26 00:46:45;;;;;;;12.55;9.00;;;;;;;16.96;100.00;100409.97;691563;28;4388;-46
2022/06/26 00:47:06;;;;;;;11.17;9.00;;;;;;;16.98;100.00;100405.50;691465;28;1845;-46
2022/06/26 00:47:26;;;;;;;10.65;8.77;;;;;;;16.95;100.00;100406.47;691835;28;1110;-49
2022/06/26 00:47:47;;;;;;;11.73;8.93;;;;;;;16.96;100.00;100412.59;691778;28;1367;-46
2022/06/26 00:48:07;;;;;;;11.68;8.90;;;;;;;16.92;100.00;100401.31;690747;28;1458;-45
2022/06/26 00:48:27;;;;;;;10.70;8.80;;;;;;;16.89;100.00;100411.09;690968;28;1803;-45
2022/06/26 00:48:48;;;;;;;10.55;8.43;;;;;;;16.89;100.00;100409.34;688529;28;837;-46
2022/06/26 00:49:08;;;;;;;10.17;8.23;;;;;;;16.93;100.00;100418.84;688816;28;1488;-45
2022/06/26 00:49:29;;;;;;;10.60;8.33;;;;;;;16.94;100.00;100414.44;685762;28;4421;-47
2022/06/26 00:49:49;;;;;;;11.33;8.70;;;;;;;16.95;100.00;100418.81;685989;28;1916;-46
2022/06/26 00:50:10;;;;;;;11.60;8.48;;;;;;;16.94;100.00;100417.94;688609;28;1301;-47
2022/06/26 00:50:31;;;;;;;10.65;7.80;;;;;;;16.97;100.00;100419.63;687981;28;1076;-46
2022/06/26 00:50:52;;;;;;;9.73;8.00;;;;;;;16.98;100.00;100419.56;686542;28;1134;-46
2022/06/26 00:51:12;;;;;;;10.30;8.43;;;;;;;16.95;100.00;100417.03;686934;28;1351;-46
2022/06/26 00:51:34;;;;;;;10.50;8.27;;;;;;;16.95;100.00;100422.31;688995;28;1275;-45
2022/06/26 00:51:55;;;;;;;11.52;8.48;;;;;;;16.95;100.00;100416.19;691697;28;1099;-46
2022/06/26 00:52:17;;;;;;;10.88;8.20;;;;;;;16.93;100.00;100421.50;691943;28;1495;-45
2022/06/26 00:52:39;;;;;;;10.13;8.45;;;;;;;16.94;100.00;100420.59;691172;28;4343;-47
2022/06/26 00:53:00;;;;;;;10.73;8.38;;;;;;;16.97;100.00;100425.75;691883;28;1064;-47
2022/06/26 00:53:20;;;;;;;10.40;8.50;;;;;;;16.95;100.00;100422.31;690790;28;1163;-45
2022/06/26 00:53:41;;;;;;;10.20;8.45;;;;;;;16.89;100.00;100421.66;690064;28;1506;-46
2022/06/26 00:54:02;;;;;;;10.15;8.85;;;;;;;16.84;100.00;100425.28;691388;28;1111;-47
2022/06/26 00:54:26;;;;;;;10.40;8.80;;;;;;;16.82;100.00;100426.25;688575;28;1419;-47
2022/06/26 00:54:49;;;;;;;10.65;8.48;;;;;;;16.85;100.00;100426.19;689285;28;985;-46
2022/06/26 00:55:10;;;;;;;10.30;8.52;;;;;;;16.87;100.00;100419.03;691265;28;1059;-45
2022/06/26 00:55:31;;;;;;;10.27;8.68;;;;;;;16.87;100.00;100413.75;690783;28;4606;-45
2022/06/26 00:55:51;;;;;;;11.10;8.90;;;;;;;16.87;100.00;100418.19;690318;28;1711;-46
2022/06/26 00:56:12;;;;;;;10.80;8.40;;;;;;;16.87;100.00;100424.31;692517;28;1139;-45
2022/06/26 00:56:33;;;;;;;10.48;8.40;;;;;;;16.86;100.00;100414.66;694017;28;1696;-46
2022/06/26 00:56:58;;;;;;;9.95;8.07;;;;;;;16.83;100.00;100417.44;694145;28;1423;-45
2022/06/26 00:57:19;;;;;;;10.93;8.55;;;;;;;16.76;100.00;100411.50;689567;28;1161;-45
2022/06/26 00:57:39;;;;;;;12.10;9.38;;;;;;;16.72;100.00;100414.31;688341;28;2006;-45
2022/06/26 00:58:01;;;;;;;11.00;9.10;;;;;;;16.68;100.00;100413.53;688161;28;1383;-45
2022/06/26 00:58:22;;;;;;;10.70;9.00;;;;;;;16.66;100.00;100418.00;687921;28;1118;-47
2022/06/26 00:58:43;;;;;;;11.35;9.10;;;;;;;16.62;100.00;100411.97;687916;28;4726;-46
2022/06/26 00:59:04;;;;;;;12.37;9.27;;;;;;;16.61;100.00;100412.88;689244;28;1131;-47
2022/06/26 00:59:25;;;;;;;11.02;8.80;;;;;;;16.61;100.00;100415.50;690555;28;1231;-46
2022/06/26 00:59:47;;;;;;;11.00;8.77;;;;;;;16.62;100.00;100416.41;688437;28;1267;-45
2022/06/26 01:00:10;;;;;;;10.02;8.43;;;;;;;16.65;100.00;100416.28;688189;28;1294;-46
2022/06/26 01:00:31;;;;;;;10.13;8.73;;;;;;;16.66;100.00;100416.22;688994;28;1310;-47
2022/06/26 01:00:51;;;;;;;11.05;9.15;;;;;;;16.66;100.00;100416.22;688126;28;1166;-47
2022/06/26 01:01:12;;;;;;;10.68;8.57;;;;;;;16.69;100.00;100417.91;687772;28;1568;-45
2022/06/26 01:01:35;;;;;;;10.03;7.97;;;;;;;16.71;100.00;100418.69;688415;28;5483;-48
2022/06/26 01:01:56;;;;;;;11.18;8.48;;;;;;;16.69;100.00;100415.25;688624;28;1242;-46
2022/06/26 01:02:16;;;;;;;11.30;8.80;;;;;;;16.64;100.00;100418.06;689152;28;1228;-45
2022/06/26 01:02:38;;;;;;;10.68;9.18;;;;;;;16.59;100.00;100414.72;688427;28;1051;-46
2022/06/26 01:02:58;;;;;;;11.98;9.68;;;;;;;16.56;100.00;100417.47;689303;28;2380;-46
2022/06/26 01:03:18;;;;;;;10.90;9.25;;;;;;;16.54;100.00;100411.38;688904;28;944;-49
2022/06/26 01:03:39;;;;;;;10.53;8.90;;;;;;;16.59;100.00;100412.06;689215;28;1519;-45
2022/06/26 01:04:03;;;;;;;10.53;8.67;;;;;;;16.63;100.00;100411.06;690982;28;918;-45
2022/06/26 01:04:24;;;;;;;10.18;8.30;;;;;;;16.64;100.00;100415.44;687494;28;1985;-45
2022/06/26 01:04:44;;;;;;;10.60;8.70;;;;;;;16.63;100.00;100418.97;687965;28;4333;-47
2022/06/26 01:05:06;;;;;;;11.02;8.73;;;;;;;16.64;100.00;100415.44;688042;28;971;-46
2022/06/26 01:05:27;;;;;;;11.13;8.73;;;;;;;16.62;100.00;100416.41;688479;28;1594;-45
2022/06/26 01:05:48;;;;;;;10.93;9.05;;;;;;;16.61;100.00;100417.31;685925;28;1252;-48
2022/06/26 01:06:08;;;;;;;10.18;8.75;;;;;;;16.63;100.00;100416.34;686653;28;2167;-45
2022/06/26 01:06:30;;;;;;;11.13;8.60;;;;;;;16.62;100.00;100409.31;688876;28;1257;-46
2022/06/26 01:06:51;;;;;;;10.35;7.90;;;;;;;16.65;100.00;100424.19;688722;28;1441;-46
2022/06/26 01:07:13;;;;;;;10.02;8.23;;;;;;;16.64;100.00;100417.19;687617;28;1253;-47
2022/06/26 01:07:33;;;;;;;10.13;8.52;;;;;;;16.63;100.00;100424.25;688636;28;4462;-45
2022/06/26 01:07:54;;;;;;;10.33;8.57;;;;;;;16.65;100.00;100421.56;690770;28;1112;-45
2022/06/26 01:08:15;;;;;;;10.95;8.85;;;;;;;16.66;100.00;100416.22;690462;28;1014;-45
2022/06/26 01:08:36;;;;;;;11.00;8.73;;;;;;;16.69;100.00;100416.13;687767;28;1144;-48
2022/06/26 01:08:57;;;;;;;10.73;8.30;;;;;;;16.71;100.00;100417.84;691755;28;1308;-45
2022/06/26 01:09:18;;;;;;;10.20;7.85;;;;;;;16.73;100.00;100426.59;690154;28;1284;-45
2022/06/26 01:09:38;;;;;;;9.65;7.43;;;;;;;16.76;100.00;100426.47;690790;28;1071;-45
2022/06/26 01:10:01;;;;;;;8.75;7.38;;;;;;;16.75;100.00;100419.47;691126;28;1027;-45
2022/06/26 01:10:24;;;;;;;8.75;7.63;;;;;;;16.73;100.00;100424.81;687156;28;1315;-46
2022/06/26 01:10:48;;;;;;;9.40;8.20;;;;;;;16.66;100.00;100429.41;683986;28;4561;-47
2022/06/26 01:11:18;;;;;;;10.52;8.27;;;;;;;16.67;100.00;100427.66;686458;28;1060;-46
2022/06/26 01:11:41;;;;;;;9.50;7.72;;;;;;;16.69;100.00;100426.66;688198;28;1124;-45
2022/06/26 01:12:02;;;;;;;9.20;7.40;;;;;;;16.73;100.00;100431.88;684716;28;1233;-46
2022/06/26 01:12:23;;;;;;;9.35;7.63;;;;;;;16.75;100.00;100433.50;683234;28;1830;-44
2022/06/26 01:12:44;;;;;;;11.60;8.73;;;;;;;16.77;100.00;100439.63;682530;28;1243;-45
2022/06/26 01:13:07;;;;;;;11.25;9.30;;;;;;;16.76;100.00;100440.53;683182;28;1342;-45
2022/06/26 01:13:28;;;;;;;10.10;8.80;;;;;;;16.77;100.00;100439.63;681462;28;4559;-45
2022/06/26 01:13:51;;;;;;;11.43;8.88;;;;;;;16.78;100.00;100449.28;683305;28;1238;-46
2022/06/26 01:14:12;;;;;;;11.63;8.80;;;;;;;16.78;100.00;100444.00;682246;28;2000;-45
2022/06/26 01:14:32;;;;;;;10.50;8.60;;;;;;;16.78;100.00;100451.91;683346;28;1088;-45
2022/06/26 01:14:53;;;;;;;11.10;8.63;;;;;;;16.78;100.00;100448.38;683092;28;1155;-45
2022/06/26 01:15:14;;;;;;;12.32;8.68;;;;;;;16.77;100.00;100450.19;683621;28;1565;-45
2022/06/26 01:15:35;;;;;;;11.32;8.95;;;;;;;16.78;100.00;100443.09;685447;28;1204;-45
2022/06/26 01:15:55;;;;;;;11.43;9.20;;;;;;;16.79;100.00;100450.13;683407;28;1163;-45
2022/06/26 01:16:18;;;;;;;11.03;8.90;;;;;;;16.77;100.00;100439.63;684816;28;1004;-45
2022/06/26 01:16:42;;;;;;;10.05;8.75;;;;;;;16.77;100.00;100441.41;681422;28;4397;-54
2022/06/26 01:17:04;;;;;;;10.30;8.55;;;;;;;16.75;100.00;100440.59;683048;28;1354;-46
2022/06/26 01:17:24;;;;;;;12.00;9.02;;;;;;;16.74;100.00;100439.72;685772;28;1244;-45
2022/06/26 01:17:45;;;;;;;11.77;9.45;;;;;;;16.75;100.00;100440.59;683837;28;1302;-45
2022/06/26 01:18:09;;;;;;;12.35;9.63;;;;;;;16.75;100.00;100445.88;681941;28;1341;-44
2022/06/26 01:18:30;;;;;;;11.00;9.25;;;;;;;16.75;100.00;100446.72;683256;28;1433;-46
2022/06/26 01:18:52;;;;;;;10.55;9.07;;;;;;;16.74;100.00;100441.50;682534;28;1206;-44
2022/06/26 01:19:17;;;;;;;11.52;9.18;;;;;;;16.75;100.00;100445.88;682426;28;1386;-46
2022/06/26 01:19:38;;;;;;;11.25;8.75;;;;;;;16.75;100.00;100445.88;685132;28;4582;-45
2022/06/26 01:19:59;;;;;;;10.77;8.43;;;;;;;16.76;100.00;100444.97;689692;28;834;-46
2022/06/26 01:20:19;;;;;;;10.53;8.90;;;;;;;16.75;100.00;100440.59;689512;28;1183;-46
2022/06/26 01:20:40;;;;;;;10.18;8.70;;;;;;;16.75;100.00;100441.44;690307;28;1107;-45
2022/06/26 01:21:01;;;;;;;10.57;8.77;;;;;;;16.75;100.00;100452.00;690769;28;1239;-46
2022/06/26 01:21:24;;;;;;;11.98;9.13;;;;;;;16.75;100.00;100448.50;690560;28;1164;-45
2022/06/26 01:21:44;;;;;;;12.40;9.38;;;;;;;16.73;100.00;100442.44;688207;28;1128;-45
2022/06/26 01:22:05;;;;;;;11.48;9.63;;;;;;;16.73;100.00;100439.78;686227;28;1533;-45
2022/06/26 01:22:27;;;;;;;11.47;9.33;;;;;;;16.73;100.00;100442.44;687256;28;1277;-45
2022/06/26 01:23:01;;;;;;;10.52;9.30;;;;;;;16.72;100.00;100441.53;684811;28;5103;-45
2022/06/26 01:23:22;;;;;;;10.73;8.98;;;;;;;16.74;100.00;100452.94;685595;28;1161;-47
2022/06/26 01:23:42;;;;;;;12.30;9.60;;;;;;;16.73;100.00;100445.06;685053;28;1085;-45
2022/06/26 01:24:04;;;;;;;11.98;9.35;;;;;;;16.73;100.00;100442.44;687582;28;1065;-45
2022/06/26 01:24:24;;;;;;;11.32;9.13;;;;;;;16.73;100.00;100442.44;687841;28;1985;-46
2022/06/26 01:24:44;;;;;;;11.50;9.20;;;;;;;16.75;100.00;100448.50;689914;28;1198;-44
2022/06/26 01:25:05;;;;;;;10.93;8.90;;;;;;;16.75;100.00;100444.06;690458;28;1346;-45
2022/06/26 01:25:26;;;;;;;10.05;8.90;;;;;;;16.72;100.00;100446.81;688022;28;1255;-45
2022/06/26 01:25:48;;;;;;;10.77;9.07;;;;;;;16.71;100.00;100449.53;689505;28;4543;-45
2022/06/26 01:26:09;;;;;;;10.93;8.73;;;;;;;16.68;100.00;100446.09;690325;28;1486;-45
2022/06/26 01:26:30;;;;;;;11.15;8.95;;;;;;;16.67;100.00;100454.91;689773;28;1274;-46
2022/06/26 01:26:50;;;;;;;10.82;9.27;;;;;;;16.64;100.00;100451.50;691090;28;1309;-45
2022/06/26 01:27:11;;;;;;;10.50;9.07;;;;;;;16.61;100.00;100452.47;689919;28;1321;-44
2022/06/26 01:27:43;;;;;;;11.65;9.13;;;;;;;16.60;100.00;100455.16;684491;28;1289;-47
2022/06/26 01:28:03;;;;;;;10.90;9.35;;;;;;;16.58;100.00;100455.22;681462;28;1242;-46
2022/06/26 01:28:24;;;;;;;10.53;9.10;;;;;;;16.57;100.00;100465.81;682151;28;1270;-47
2022/06/26 01:28:44;;;;;;;11.40;8.85;;;;;;;16.57;100.00;100468.44;683669;28;4285;-46
2022/06/26 01:29:04;;;;;;;10.97;9.13;;;;;;;16.57;100.00;100468.44;684387;28;1056;-45
2022/06/26 01:29:25;;;;;;;11.20;9.30;;;;;;;16.63;100.00;100469.13;685559;28;911;-45
2022/06/26 01:29:46;;;;;;;11.87;9.60;;;;;;;16.64;100.00;100462.94;687783;28;1191;-45
2022/06/26 01:30:07;;;;;;;11.85;9.00;;;;;;;16.63;100.00;100463.00;689643;28;977;-45
2022/06/26 01:30:27;;;;;;;12.40;9.55;;;;;;;16.62;100.00;100467.38;688399;28;1390;-46
2022/06/26 01:30:48;;;;;;;12.60;9.40;;;;;;;16.60;100.00;100474.50;687958;28;1107;-45
2022/06/26 01:31:09;;;;;;;12.67;9.83;;;;;;;16.59;100.00;100466.66;685361;28;1383;-46
2022/06/26 01:31:32;;;;;;;11.82;9.60;;;;;;;16.60;100.00;100461.31;685554;28;4457;-45
2022/06/26 01:31:53;;;;;;;10.85;8.82;;;;;;;16.60;100.00;100469.22;685241;28;1396;-46
2022/06/26 01:32:14;;;;;;;11.17;8.67;;;;;;;16.59;100.00;100478.06;686978;28;1453;-45
2022/06/26 01:32:34;;;;;;;12.15;9.00;;;;;;;16.56;100.00;100478.16;688533;28;1120;-47
2022/06/26 01:32:55;;;;;;;11.05;8.80;;;;;;;16.51;100.00;100478.28;680399;29;1245;-45
2022/06/26 01:33:15;;;;;;;10.80;8.80;;;;;;;16.47;100.00;100475.81;679984;28;1134;-47
2022/06/26 01:33:36;;;;;;;10.80;8.93;;;;;;;16.44;100.00;100479.41;679132;29;1400;-46
2022/06/26 01:33:57;;;;;;;11.65;9.50;;;;;;;16.45;100.00;100480.28;679931;29;1346;-45
2022/06/26 01:34:17;;;;;;;10.63;8.80;;;;;;;16.44;100.00;100479.41;679855;28;1216;-45
2022/06/26 01:34:38;;;;;;;10.20;8.65;;;;;;;16.46;100.00;100482.00;682816;28;4299;-44
2022/06/26 01:35:01;;;;;;;10.70;9.02;;;;;;;16.47;100.00;100483.72;684426;28;1655;-46
2022/06/26 01:35:21;;;;;;;10.43;8.97;;;;;;;16.47;100.00;100486.34;682007;28;1383;-45
2022/06/26 01:35:51;;;;;;;10.60;8.65;;;;;;;16.49;100.00;100492.44;686262;28;1518;-46
2022/06/26 01:36:14;;;;;;;9.60;8.57;;;;;;;16.50;100.00;100486.25;683283;28;1461;-45
2022/06/26 01:36:36;;;;;;;9.68;8.52;;;;;;;16.49;100.00;100489.78;685361;28;1120;-46
2022/06/26 01:36:57;;;;;;;10.88;9.40;;;;;;;16.45;100.00;100496.13;685213;28;1261;-45
2022/06/26 01:37:17;;;;;;;11.50;9.50;;;;;;;16.45;100.00;100490.84;687409;28;1322;-46
2022/06/26 01:37:38;;;;;;;12.87;9.50;;;;;;;16.45;100.00;100490.84;683906;28;4410;-46
2022/06/26 01:38:08;;;;;;;11.80;9.32;;;;;;;16.48;100.00;100488.94;685700;28;1224;-45
2022/06/26 01:38:29;;;;;;;13.13;9.15;;;;;;;16.51;100.00;100488.00;687950;28;1123;-46